Startpagina
METAR-TAF:

METAR-TAF

Vliegvelden :

Tumbes, Peru

breedte: 03-33S, lengte: 080-24W, hoogte: 25 m

METAR: ontbreekt

Tijdstip: 17:42 (22:42 UTC)

Verwachting

Dit bericht is 33 uur en het 12 minuten geleden gemaakt, om 13:30 UTC
Verwachting geldig van 30 om 12 UTC tot 31 om 12 UTC
Wind 5 kt uit het noordnoordoosten
Zicht 10 km of meer
Verspreide wolken op 1500 ft
Wijzigt naar
van 30 om 16 UTC tot 30 om 18 UTC
Wind 10 kt uit het noordnoordwesten
Van 31 om 0130 UTC
Wind 6 kt uit het westen
Zicht: 8000 m
Gebroken wolken op 2000 ft

TAF: SPME 301330Z 3012/3112 02005KT 9999 SCT015 TX31/3019Z TN21/3110Z BECMG 3016/3018 33010KT FM310130 27006KT 8000 BKN020

Waarnemingen en weersverwachtingen van meer dan 4000 vliegvelden (METAR en TAF).

De beschikbare stations zijn de gele en rode punten op de kaart.

Ga met uw muis naar het station om de naam te zien.

Klik dan om waarnemingen en weersverwachtingen te zien.

kaart wijzigen: klik op de groene knoppen met een zwart kruis om in te zoomen, op de groene knop met een streepje om uit te zoomen of op de groene pijlen voor aangrenzende kaarten.


METAR-TAF: